Time;durP1;ratioP1;P1;durP2;ratioP2;P2;SDS_P1;SDS_P2;PMS_P1;PMS_P2;Temp;Humidity;BMP_temperature;BMP_pressure;BME280_temperature;BME280_humidity;BME280_pressure;Samples;Min_cycle;Max_cycle;Signal;HPM_P1;HPM_P2
2022/11/18 00:01:09;;;;;;;5.68;0.90;;;21.50;99.90;;;;;;5030725;28;20193;-82
2022/11/18 00:03:44;;;;;;;1.80;0.60;;;21.40;99.90;;;;;;5043825;28;20278;-83
2022/11/18 00:06:16;;;;;;;4.45;0.70;;;21.50;99.90;;;;;;5043118;28;20295;-83
2022/11/18 00:08:47;;;;;;;2.08;0.50;;;21.70;99.90;;;;;;5046581;28;20216;-84
2022/11/18 00:14:22;;;;;;;3.78;1.45;;;21.90;99.90;;;;;;5045160;28;20235;-83
2022/11/18 00:16:55;;;;;;;3.67;1.17;;;21.80;99.90;;;;;;5034642;28;20197;-82
2022/11/18 00:19:29;;;;;;;3.47;0.80;;;21.90;99.90;;;;;;5048203;28;20716;-82
2022/11/18 00:22:00;;;;;;;2.10;0.40;;;22.10;99.90;;;;;;5040860;28;20200;-82
2022/11/18 00:24:34;;;;;;;3.50;0.75;;;22.20;99.90;;;;;;5048778;28;20603;-84
2022/11/18 00:27:05;;;;;;;3.88;0.70;;;22.10;99.90;;;;;;5040527;28;20628;-83
2022/11/18 00:29:36;;;;;;;3.33;0.70;;;22.20;99.90;;;;;;5043737;28;20280;-82
2022/11/18 00:32:07;;;;;;;1.55;0.40;;;22.30;99.90;;;;;;5039873;28;20201;-83
2022/11/18 00:34:41;;;;;;;2.95;0.50;;;22.20;99.90;;;;;;5045730;28;20741;-84
2022/11/18 00:37:12;;;;;;;2.58;0.50;;;22.20;99.90;;;;;;5055109;28;20203;-83
2022/11/18 00:39:43;;;;;;;2.47;0.50;;;22.20;99.90;;;;;;5040146;28;20224;-83
2022/11/18 00:45:00;;;;;;;1.52;0.52;;;22.10;99.90;;;;;;5059787;28;20242;-83
2022/11/18 00:47:31;;;;;;;4.03;0.60;;;22.20;99.90;;;;;;5042855;28;20246;-83
2022/11/18 00:50:03;;;;;;;2.70;0.77;;;22.30;99.90;;;;;;5041218;28;20293;-83
2022/11/18 00:52:34;;;;;;;4.80;0.82;;;22.40;99.40;;;;;;5042012;28;20240;-83
2022/11/18 00:55:05;;;;;;;1.20;0.38;;;22.40;99.40;;;;;;5049604;28;20845;-83
2022/11/18 00:57:35;;;;;;;1.58;0.60;;;22.50;96.90;;;;;;5049029;28;20270;-82
2022/11/18 01:00:08;;;;;;;1.73;0.70;;;22.50;98.10;;;;;;5053437;28;20250;-83
2022/11/18 01:02:38;;;;;;;3.20;0.75;;;22.30;99.90;;;;;;5064447;28;20236;-83
2022/11/18 01:05:12;;;;;;;3.50;0.70;;;22.40;99.90;;;;;;5052602;28;20224;-83
2022/11/18 01:07:42;;;;;;;0.85;0.50;;;22.40;99.90;;;;;;5053215;28;20196;-84
2022/11/18 01:10:13;;;;;;;3.33;0.50;;;22.40;99.90;;;;;;5053277;28;20209;-84
2022/11/18 01:15:30;;;;;;;4.93;1.00;;;22.40;99.90;;;;;;5050204;28;20207;-83
2022/11/18 01:18:01;;;;;;;1.98;0.70;;;22.50;99.90;;;;;;5059621;28;20199;-84
2022/11/18 01:20:36;;;;;;;1.80;0.57;;;22.40;99.90;;;;;;5064636;28;20229;-83
2022/11/18 01:23:07;;;;;;;3.33;0.60;;;22.50;99.90;;;;;;5054102;28;20197;-84
2022/11/18 01:25:39;;;;;;;3.65;0.60;;;22.50;99.90;;;;;;5052676;28;20229;-84
2022/11/18 01:28:10;;;;;;;1.63;0.57;;;22.60;99.90;;;;;;5052876;28;20651;-84
2022/11/18 01:30:42;;;;;;;4.75;0.57;;;22.70;99.90;;;;;;5053866;28;20212;-83
2022/11/18 01:33:13;;;;;;;1.77;0.40;;;22.80;99.90;;;;;;5055250;28;20207;-84
2022/11/18 01:35:47;;;;;;;2.00;0.60;;;22.90;99.70;;;;;;5055005;28;20552;-83
2022/11/18 01:38:18;;;;;;;1.40;0.57;;;23.00;99.70;;;;;;5060596;28;20207;-84
2022/11/18 01:40:49;;;;;;;2.42;0.80;;;23.00;96.90;;;;;;5063779;28;20199;-83
2022/11/18 01:43:21;;;;;;;2.25;0.70;;;23.00;96.80;;;;;;5055725;28;20725;-83
2022/11/18 01:45:54;;;;;;;3.20;0.80;;;23.10;96.30;;;;;;5055994;28;20228;-84
2022/11/18 01:48:28;;;;;;;3.33;0.70;;;22.80;96.30;;;;;;5053564;28;20204;-83
2022/11/18 01:51:06;;;;;;;1.02;0.50;;;22.80;97.50;;;;;;5053387;28;20200;-83
2022/11/18 01:53:40;;;;;;;2.90;0.30;;;22.90;97.70;;;;;;5055341;28;20567;-84
2022/11/18 01:56:16;;;;;;;1.65;0.63;;;23.00;94.60;;;;;;5059598;28;20264;-83
2022/11/18 01:58:52;;;;;;;1.55;0.50;;;23.00;93.90;;;;;;5037774;28;20220;-83
2022/11/18 02:01:23;;;;;;;2.65;0.30;;;23.10;93.40;;;;;;5035446;28;20224;-82
2022/11/18 02:03:55;;;;;;;0.50;0.30;;;23.10;92.20;;;;;;5052046;28;20717;-84
2022/11/18 02:06:28;;;;;;;3.00;0.50;;;23.00;92.00;;;;;;5052365;28;20220;-83
2022/11/18 02:08:59;;;;;;;2.17;0.43;;;23.00;93.20;;;;;;5057767;28;20676;-84
2022/11/18 02:14:17;;;;;;;1.48;0.30;;;23.00;93.20;;;;;;5052218;28;20208;-83
2022/11/18 02:17:05;;;;;;;2.60;0.43;;;23.10;92.30;;;;;;5052288;28;20192;-82
2022/11/18 02:19:52;;;;;;;0.75;0.30;;;23.00;92.40;;;;;;5051997;28;20678;-84
2022/11/18 02:22:48;;;;;;;2.55;0.63;;;23.10;92.30;;;;;;5052733;28;20196;-83
2022/11/18 02:25:24;;;;;;;2.05;0.65;;;23.40;91.60;;;;;;5038243;28;20227;-83
2022/11/18 02:28:33;;;;;;;4.25;0.68;;;23.40;92.50;;;;;;5063445;28;20643;-83
2022/11/18 02:31:15;;;;;;;2.08;0.50;;;23.60;92.60;;;;;;5051852;28;20275;-84
2022/11/18 02:33:55;;;;;;;3.95;0.60;;;23.70;92.40;;;;;;5051945;28;20204;-84
2022/11/18 02:36:36;;;;;;;4.05;0.65;;;23.50;92.70;;;;;;5052018;28;20204;-84
2022/11/18 02:39:09;;;;;;;3.17;0.47;;;23.50;93.90;;;;;;5051722;28;20211;-84
2022/11/18 02:41:43;;;;;;;2.10;0.47;;;23.50;94.50;;;;;;5050991;28;20203;-83
2022/11/18 02:44:18;;;;;;;2.40;0.60;;;23.50;92.80;;;;;;5080200;28;20591;-83
2022/11/18 02:46:58;;;;;;;3.60;0.63;;;23.70;95.90;;;;;;5072054;28;20229;-83
2022/11/18 02:49:35;;;;;;;0.60;0.40;;;23.80;94.50;;;;;;5071652;28;20709;-83
2022/11/18 02:52:07;;;;;;;2.08;0.50;;;23.90;93.40;;;;;;5072424;28;20195;-83
2022/11/18 02:54:41;;;;;;;1.85;0.65;;;24.00;95.20;;;;;;5053303;28;20196;-83
2022/11/18 02:57:12;;;;;;;1.60;0.60;;;24.10;94.90;;;;;;5051514;28;20205;-83
2022/11/18 02:59:43;;;;;;;2.00;0.60;;;24.20;94.60;;;;;;5052596;28;20196;-84
2022/11/18 03:02:20;;;;;;;4.13;0.75;;;24.20;95.60;;;;;;5053092;28;20700;-83
2022/11/18 03:04:53;;;;;;;4.35;0.90;;;24.30;95.60;;;;;;5042298;28;20200;-84
2022/11/18 03:07:28;;;;;;;1.15;0.60;;;24.40;94.30;;;;;;5051375;28;20236;-83
2022/11/18 03:10:01;;;;;;;4.32;0.60;;;24.30;94.60;;;;;;5051734;28;20196;-83
2022/11/18 03:12:41;;;;;;;2.30;0.75;;;24.40;93.00;;;;;;5051089;28;20197;-83
2022/11/18 03:15:25;;;;;;;2.78;0.63;;;24.30;93.20;;;;;;5050196;28;20207;-84
2022/11/18 03:18:03;;;;;;;0.75;0.30;;;24.10;92.30;;;;;;5051643;28;20203;-83
2022/11/18 03:20:39;;;;;;;2.80;0.40;;;24.20;91.70;;;;;;5050954;28;20678;-84
2022/11/18 03:23:14;;;;;;;4.28;0.50;;;24.20;92.80;;;;;;5051401;28;20203;-83
2022/11/18 03:25:51;;;;;;;1.35;0.52;;;24.50;92.90;;;;;;5039848;28;20216;-83
2022/11/18 03:28:26;;;;;;;1.17;0.40;;;24.70;92.90;;;;;;5031633;28;20208;-83
2022/11/18 03:31:01;;;;;;;2.58;0.80;;;24.50;93.20;;;;;;5045853;28;20200;-83
2022/11/18 03:33:37;;;;;;;6.65;0.70;;;24.60;92.80;;;;;;5053617;28;20204;-85
2022/11/18 03:36:12;;;;;;;3.63;0.80;;;24.70;93.20;;;;;;5071385;28;20208;-83
2022/11/18 03:38:48;;;;;;;4.93;0.65;;;24.80;93.90;;;;;;5071411;28;20257;-84
2022/11/18 03:41:22;;;;;;;0.93;0.40;;;24.80;93.00;;;;;;5072912;28;20201;-82
2022/11/18 03:43:58;;;;;;;2.70;0.55;;;24.40;93.30;;;;;;5071174;28;20203;-83
2022/11/18 03:46:36;;;;;;;4.15;0.50;;;24.00;94.40;;;;;;5071981;28;20212;-82
2022/11/18 03:49:12;;;;;;;2.83;0.60;;;24.10;95.90;;;;;;5057034;28;20200;-82
2022/11/18 03:51:48;;;;;;;1.70;0.50;;;24.20;95.40;;;;;;5063494;28;20701;-82
2022/11/18 03:54:24;;;;;;;2.42;0.60;;;24.30;94.80;;;;;;5071263;28;20199;-82
2022/11/18 03:57:00;;;;;;;1.67;0.40;;;24.50;93.60;;;;;;5067308;28;20197;-82
2022/11/18 03:59:37;;;;;;;2.42;0.50;;;24.50;93.90;;;;;;5037586;28;20198;-82
2022/11/18 04:02:12;;;;;;;1.48;0.40;;;24.60;94.40;;;;;;5052194;28;20239;-83
2022/11/18 04:04:48;;;;;;;1.88;0.50;;;24.70;93.80;;;;;;5051937;28;20564;-83
2022/11/18 04:07:24;;;;;;;1.48;0.55;;;24.70;94.10;;;;;;5056674;28;20584;-83
2022/11/18 04:09:59;;;;;;;1.95;0.57;;;24.80;94.70;;;;;;5075647;28;20567;-83
2022/11/18 04:12:34;;;;;;;2.70;0.65;;;24.80;95.00;;;;;;5073285;28;20661;-83
2022/11/18 04:15:05;;;;;;;2.80;0.63;;;24.70;93.50;;;;;;5074946;28;20683;-84
2022/11/18 04:17:36;;;;;;;1.33;0.45;;;24.50;93.80;;;;;;5054385;28;20575;-84
2022/11/18 04:20:15;;;;;;;2.00;0.40;;;24.30;94.10;;;;;;5053046;28;20570;-84
2022/11/18 04:22:46;;;;;;;3.28;0.55;;;24.30;94.80;;;;;;5042928;28;20578;-83
2022/11/18 04:25:18;;;;;;;3.38;0.60;;;24.40;94.10;;;;;;5061227;28;20202;-84
2022/11/18 04:27:53;;;;;;;3.50;0.70;;;24.40;95.30;;;;;;5055149;28;20413;-84
2022/11/18 04:30:27;;;;;;;1.08;0.40;;;24.70;94.00;;;;;;5049623;28;20659;-83
2022/11/18 04:32:58;;;;;;;1.83;0.43;;;24.90;93.40;;;;;;5040191;28;20197;-84
2022/11/18 04:35:31;;;;;;;2.40;0.38;;;25.00;92.80;;;;;;5049409;28;20419;-83
2022/11/18 04:38:02;;;;;;;3.20;0.80;;;25.20;92.40;;;;;;5030529;28;20201;-83
2022/11/18 04:40:33;;;;;;;1.15;0.45;;;25.40;91.10;;;;;;5030844;28;20185;-83
2022/11/18 04:43:05;;;;;;;2.45;0.65;;;25.40;91.00;;;;;;5063965;28;20247;-85
2022/11/18 04:45:36;;;;;;;4.65;0.90;;;25.40;92.60;;;;;;5071917;28;20199;-84
2022/11/18 04:48:07;;;;;;;1.25;0.50;;;25.40;92.90;;;;;;5070917;28;20206;-85
2022/11/18 04:50:40;;;;;;;1.48;0.60;;;25.40;93.50;;;;;;5088685;28;20234;-85
2022/11/18 04:53:11;;;;;;;1.60;0.60;;;25.50;93.70;;;;;;5060982;28;20586;-84
2022/11/18 04:55:42;;;;;;;2.88;0.70;;;25.40;93.70;;;;;;5049359;28;21129;-83
2022/11/18 04:58:13;;;;;;;2.90;0.40;;;25.60;93.20;;;;;;5038017;28;20217;-82
2022/11/18 05:00:44;;;;;;;3.85;0.50;;;25.90;91.10;;;;;;5041431;28;20282;-83
2022/11/18 05:03:17;;;;;;;3.22;0.60;;;25.80;90.70;;;;;;5048722;28;20224;-82
2022/11/18 05:05:50;;;;;;;1.42;0.60;;;25.90;91.10;;;;;;5041557;28;20223;-82
2022/11/18 05:08:22;;;;;;;1.13;0.60;;;25.90;90.80;;;;;;5039546;28;20288;-83
2022/11/18 05:12:47;;;;;;;1.75;0.50;;;25.90;90.30;;;;;;5047894;28;20610;-82
2022/11/18 05:13:42;;;;;;;3.70;0.50;;;25.80;89.20;;;;;;5046515;28;20193;-83
2022/11/18 05:16:13;;;;;;;1.77;0.60;;;26.10;90.70;;;;;;5049430;28;20279;-83
2022/11/18 05:18:44;;;;;;;1.55;0.35;;;26.10;88.60;;;;;;5048701;28;20189;-83
2022/11/18 05:21:16;;;;;;;3.25;0.65;;;26.30;86.10;;;;;;5050110;28;20200;-83
2022/11/18 05:23:47;;;;;;;2.90;0.60;;;26.40;88.10;;;;;;5040004;28;20223;-83
2022/11/18 05:26:18;;;;;;;2.30;0.80;;;26.50;89.60;;;;;;5047207;28;20675;-82
2022/11/18 05:28:49;;;;;;;2.00;1.00;;;26.70;84.80;;;;;;5033033;28;20193;-81
2022/11/18 05:31:19;;;;;;;2.05;0.70;;;26.80;86.00;;;;;;5049125;28;20707;-84
2022/11/18 05:33:50;;;;;;;1.33;0.57;;;27.00;85.20;;;;;;5047419;28;20223;-84
2022/11/18 05:36:24;;;;;;;3.22;0.70;;;27.00;86.00;;;;;;5043701;28;20213;-85
2022/11/18 05:38:56;;;;;;;2.35;0.70;;;27.30;87.10;;;;;;5044497;28;20212;-83
2022/11/18 05:44:13;;;;;;;3.53;0.68;;;28.00;82.40;;;;;;5049584;28;20242;-82
2022/11/18 05:46:44;;;;;;;1.33;0.40;;;28.10;77.00;;;;;;5045791;28;20232;-83
2022/11/18 05:49:15;;;;;;;3.90;0.70;;;28.20;73.20;;;;;;5053438;28;20207;-82
2022/11/18 05:51:48;;;;;;;2.17;0.77;;;28.40;72.50;;;;;;5062140;28;20566;-84
2022/11/18 05:54:20;;;;;;;2.00;0.40;;;28.70;72.30;;;;;;5062511;28;20311;-83
2022/11/18 05:56:51;;;;;;;0.85;0.30;;;28.50;68.60;;;;;;5050772;28;20205;-83
2022/11/18 05:59:23;;;;;;;1.80;0.45;;;28.50;66.70;;;;;;5051133;28;20192;-83
2022/11/18 06:01:56;;;;;;;2.35;0.63;;;28.40;69.10;;;;;;5040964;28;20249;-83
2022/11/18 06:04:33;;;;;;;1.42;0.50;;;28.30;69.50;;;;;;5042047;28;20704;-84
2022/11/18 06:07:10;;;;;;;1.77;0.60;;;28.10;71.50;;;;;;5037143;28;20224;-83
2022/11/18 06:09:43;;;;;;;2.35;0.40;;;28.10;71.70;;;;;;5048437;28;20291;-83
2022/11/18 06:12:19;;;;;;;1.27;0.52;;;28.20;71.00;;;;;;5047894;28;20222;-84
2022/11/18 06:14:53;;;;;;;2.42;0.50;;;28.30;70.60;;;;;;5051150;28;20351;-83
2022/11/18 06:17:30;;;;;;;2.00;0.55;;;28.30;70.80;;;;;;5047729;28;20558;-85
2022/11/18 06:20:01;;;;;;;2.17;0.60;;;28.20;70.70;;;;;;5052531;28;20219;-84
2022/11/18 06:22:35;;;;;;;2.90;0.52;;;28.30;72.10;;;;;;5051284;28;20204;-83
2022/11/18 06:25:06;;;;;;;6.50;0.70;;;28.30;71.40;;;;;;5047033;28;20192;-84
2022/11/18 06:27:37;;;;;;;3.67;0.73;;;28.20;70.00;;;;;;5045906;28;21504;-84
2022/11/18 06:30:09;;;;;;;2.58;1.02;;;27.90;73.60;;;;;;5052128;28;20203;-85
2022/11/18 06:32:40;;;;;;;5.95;1.10;;;28.20;73.70;;;;;;5049472;28;22419;-86
2022/11/18 06:35:11;;;;;;;1.95;0.65;;;28.40;73.90;;;;;;5036578;28;20216;-83
2022/11/18 06:37:46;;;;;;;2.58;0.88;;;28.00;74.50;;;;;;5050592;28;20216;-82
2022/11/18 06:40:17;;;;;;;1.42;0.40;;;28.40;73.50;;;;;;5049356;28;20188;-82
2022/11/18 06:45:34;;;;;;;1.20;0.50;;;28.80;70.30;;;;;;5050443;28;20212;-83
2022/11/18 06:48:03;;;;;;;1.40;0.55;;;29.10;70.40;;;;;;5051133;28;20217;-83
2022/11/18 06:50:34;;;;;;;2.60;0.60;;;29.50;68.40;;;;;;5043317;28;20209;-84
2022/11/18 06:53:07;;;;;;;0.90;0.47;;;29.50;67.20;;;;;;5044861;28;20679;-83
2022/11/18 06:55:38;;;;;;;1.58;0.40;;;29.60;66.10;;;;;;5041941;28;20214;-84
2022/11/18 06:58:09;;;;;;;2.60;0.60;;;29.50;65.90;;;;;;5062159;28;20276;-83
2022/11/18 07:00:40;;;;;;;2.45;0.50;;;29.60;66.10;;;;;;5051211;28;20200;-84
2022/11/18 07:03:11;;;;;;;1.90;0.50;;;29.30;67.70;;;;;;5043882;28;20229;-85
2022/11/18 07:05:42;;;;;;;3.22;0.60;;;29.40;65.80;;;;;;5039988;28;20192;-86
2022/11/18 07:08:15;;;;;;;4.20;0.68;;;29.40;65.70;;;;;;5041639;28;20209;-85
2022/11/18 07:10:55;;;;;;;1.58;0.40;;;29.40;65.20;;;;;;5052103;28;20197;-85
2022/11/18 07:13:26;;;;;;;3.97;0.73;;;28.70;65.90;;;;;;5066808;28;20196;-84
2022/11/18 07:15:56;;;;;;;3.60;0.63;;;28.70;67.40;;;;;;5032342;28;20285;-85
2022/11/18 07:18:27;;;;;;;2.70;1.00;;;28.50;67.80;;;;;;5037350;28;20208;-85
2022/11/18 07:20:59;;;;;;;4.63;1.25;;;29.10;65.90;;;;;;5032803;28;20861;-86
2022/11/18 07:23:32;;;;;;;1.48;0.43;;;28.80;66.60;;;;;;5034869;28;20610;-86
2022/11/18 07:26:03;;;;;;;3.75;0.70;;;28.90;67.20;;;;;;5037470;28;20193;-86
2022/11/18 07:28:34;;;;;;;3.35;0.70;;;29.00;65.50;;;;;;5043046;28;20564;-85
2022/11/18 07:31:06;;;;;;;3.72;0.95;;;28.90;66.80;;;;;;5051291;28;20223;-86
2022/11/18 07:33:38;;;;;;;2.67;0.57;;;29.00;65.70;;;;;;5053060;28;20690;-85
2022/11/18 07:36:10;;;;;;;1.50;0.60;;;29.20;64.30;;;;;;5045751;28;20280;-88
2022/11/18 07:38:43;;;;;;;2.35;0.55;;;28.90;65.80;;;;;;5047870;28;20219;-86
2022/11/18 07:41:16;;;;;;;2.20;0.75;;;28.60;65.40;;;;;;5041364;28;20551;-85
2022/11/18 07:43:49;;;;;;;2.65;1.00;;;28.30;65.30;;;;;;5032713;28;20201;-86
2022/11/18 07:46:21;;;;;;;1.98;0.70;;;28.00;67.50;;;;;;5040629;28;20193;-85
2022/11/18 07:48:53;;;;;;;3.72;0.98;;;27.40;68.20;;;;;;5047386;28;20228;-84
2022/11/18 07:51:25;;;;;;;2.95;1.10;;;26.90;72.30;;;;;;5043512;28;20196;-85
2022/11/18 07:53:59;;;;;;;2.72;0.95;;;26.30;73.50;;;;;;5036720;28;20201;-84
2022/11/18 07:56:30;;;;;;;2.78;1.20;;;25.80;75.70;;;;;;5032345;28;20297;-84
2022/11/18 07:59:01;;;;;;;3.03;0.60;;;25.30;77.30;;;;;;5050057;28;20212;-85
2022/11/18 08:01:33;;;;;;;3.67;0.80;;;24.90;81.00;;;;;;5064677;28;20180;-86
2022/11/18 08:04:09;;;;;;;5.10;0.98;;;24.40;85.70;;;;;;5039141;28;20707;-86
2022/11/18 08:06:41;;;;;;;4.90;1.10;;;24.10;89.20;;;;;;5040194;28;20270;-88
2022/11/18 08:09:15;;;;;;;3.47;1.00;;;23.60;92.20;;;;;;5036754;28;20193;-86
2022/11/18 08:11:45;;;;;;;2.78;0.90;;;23.40;95.30;;;;;;5032183;28;20213;-87
2022/11/18 08:14:17;;;;;;;3.58;0.82;;;23.30;97.70;;;;;;5041712;28;20222;-86
2022/11/18 08:16:47;;;;;;;3.60;0.70;;;23.10;98.70;;;;;;5035589;28;20671;-86
2022/11/18 08:19:18;;;;;;;1.77;0.70;;;23.00;99.30;;;;;;5038012;28;20309;-85
2022/11/18 08:21:49;;;;;;;2.63;0.77;;;22.70;99.90;;;;;;5049871;28;20279;-86
2022/11/18 08:24:23;;;;;;;2.67;0.82;;;22.60;99.90;;;;;;5049544;28;20199;-85
2022/11/18 08:26:54;;;;;;;4.43;1.33;;;22.30;99.90;;;;;;5037500;28;20262;-86
2022/11/18 08:29:25;;;;;;;3.38;0.70;;;22.20;99.90;;;;;;5047783;28;20199;-86
2022/11/18 08:31:55;;;;;;;2.08;0.75;;;22.00;99.90;;;;;;5042743;28;20200;-86
2022/11/18 08:34:28;;;;;;;3.97;0.90;;;21.90;99.90;;;;;;5059688;28;20193;-85
2022/11/18 08:37:06;;;;;;;2.00;1.00;;;21.80;99.90;;;;;;5064238;28;20284;-86
2022/11/18 08:39:54;;;;;;;2.50;1.15;;;21.60;99.90;;;;;;5071070;28;20208;-88
2022/11/18 08:42:28;;;;;;;4.47;1.40;;;21.50;99.90;;;;;;5064615;28;20193;-87
2022/11/18 08:44:59;;;;;;;4.07;1.20;;;21.50;99.90;;;;;;5064288;28;20207;-86
2022/11/18 08:47:30;;;;;;;4.93;1.15;;;21.40;99.90;;;;;;5058307;28;20327;-89
2022/11/18 08:50:17;;;;;;;2.58;1.20;;;21.40;99.90;;;;;;5061312;28;20224;-88
2022/11/18 08:52:55;;;;;;;4.72;0.90;;;21.30;99.90;;;;;;5056585;28;20219;-87
2022/11/18 08:55:28;;;;;;;5.03;1.30;;;21.40;99.90;;;;;;5048010;28;20192;-89
2022/11/18 08:57:59;;;;;;;3.97;1.48;;;21.30;99.90;;;;;;5060858;28;20280;-88
2022/11/18 09:00:30;;;;;;;3.28;1.10;;;21.30;99.90;;;;;;5058125;28;20192;-87
2022/11/18 09:03:01;;;;;;;2.72;1.00;;;21.20;99.90;;;;;;5054298;28;20213;-87
2022/11/18 09:05:34;;;;;;;4.15;1.30;;;21.10;99.90;;;;;;5063599;28;20650;-86
2022/11/18 09:08:06;;;;;;;4.63;1.75;;;21.00;99.90;;;;;;5060793;28;20220;-88
2022/11/18 09:13:38;;;;;;;5.65;2.33;;;20.90;99.90;;;;;;5065845;28;20266;-87
2022/11/18 09:16:12;;;;;;;5.18;2.50;;;20.90;99.90;;;;;;5064435;28;20200;-86
2022/11/18 09:18:54;;;;;;;3.60;1.00;;;20.90;99.90;;;;;;5068008;28;20204;-87
2022/11/18 09:21:36;;;;;;;2.45;0.90;;;20.90;99.90;;;;;;5072340;28;20189;-87
2022/11/18 09:24:14;;;;;;;4.95;1.52;;;20.90;99.90;;;;;;5071872;28;20188;-88
2022/11/18 09:26:57;;;;;;;5.95;1.20;;;20.90;99.90;;;;;;5069139;28;20947;-90
2022/11/18 09:29:45;;;;;;;;;;;;;;;;;;;;;
2022/11/18 09:35:09;;;;;;;4.28;1.40;;;20.70;99.90;;;;;;5071931;28;20204;-86
2022/11/18 09:38:01;;;;;;;;;;;;;;;;;;;;;
2022/11/18 09:41:01;;;;;;;3.72;1.38;;;20.60;99.90;;;;;;5066194;28;20287;-88
2022/11/18 09:43:56;;;;;;;3.25;1.10;;;20.60;99.90;;;;;;5069369;28;20207;-86
2022/11/18 09:46:40;;;;;;;2.95;1.10;;;20.60;99.90;;;;;;5069242;28;20196;-87
2022/11/18 09:49:17;;;;;;;2.72;1.05;;;20.50;99.90;;;;;;5069533;28;20224;-88
2022/11/18 09:51:52;;;;;;;5.38;1.30;;;20.50;99.90;;;;;;5072289;28;20210;-90
2022/11/18 09:54:26;;;;;;;3.30;1.60;;;20.50;99.90;;;;;;5070544;28;20200;-88
2022/11/18 09:57:04;;;;;;;7.38;1.50;;;20.50;99.90;;;;;;5069420;28;20200;-88
2022/11/18 09:59:42;;;;;;;3.08;1.02;;;20.50;99.90;;;;;;5066935;28;20204;-87
2022/11/18 10:02:47;;;;;;;3.58;0.88;;;20.50;99.90;;;;;;5065669;28;20250;-88
2022/11/18 10:05:27;;;;;;;2.58;0.80;;;20.50;99.90;;;;;;5069984;28;20192;-86
2022/11/18 10:08:23;;;;;;;3.25;1.15;;;20.40;99.90;;;;;;5072629;28;20209;-87
2022/11/18 10:11:07;;;;;;;4.13;1.17;;;20.30;99.90;;;;;;5048014;28;20200;-87
2022/11/18 10:13:56;;;;;;;3.90;1.02;;;20.30;99.90;;;;;;5066944;28;20239;-86
2022/11/18 10:16:53;;;;;;;4.43;1.30;;;20.30;99.90;;;;;;5069001;28;20279;-88
2022/11/18 10:19:35;;;;;;;5.65;1.35;;;20.30;99.90;;;;;;5064755;28;20216;-89
2022/11/18 10:22:25;;;;;;;3.85;1.20;;;20.20;99.90;;;;;;5064551;28;20196;-89
2022/11/18 10:24:59;;;;;;;4.40;1.33;;;20.20;99.90;;;;;;5063401;28;20231;-85
2022/11/18 10:27:40;;;;;;;2.05;1.00;;;20.30;99.90;;;;;;5049173;28;20197;-88
2022/11/18 10:30:16;;;;;;;4.80;1.60;;;20.20;99.90;;;;;;5042312;28;20208;-91
2022/11/18 10:33:05;;;;;;;2.28;0.90;;;20.20;99.90;;;;;;5036842;28;20197;-88
2022/11/18 10:35:39;;;;;;;3.05;0.93;;;20.20;99.90;;;;;;5041878;28;20725;-88
2022/11/18 10:38:19;;;;;;;4.25;0.98;;;20.20;99.90;;;;;;5047902;28;20211;-88
2022/11/18 10:41:00;;;;;;;4.60;1.05;;;20.20;99.90;;;;;;5040075;28;20197;-89
2022/11/18 10:43:49;;;;;;;2.78;0.90;;;20.10;99.90;;;;;;5051023;28;20222;-88
2022/11/18 10:46:25;;;;;;;1.92;0.80;;;20.20;99.90;;;;;;5048140;28;20200;-88
2022/11/18 10:49:21;;;;;;;3.75;0.85;;;20.20;99.90;;;;;;5042368;28;20233;-89
2022/11/18 10:52:07;;;;;;;1.80;0.73;;;20.10;99.90;;;;;;5042795;28;20335;-89
2022/11/18 10:54:38;;;;;;;1.38;0.57;;;20.10;99.90;;;;;;5037285;28;20580;-88
2022/11/18 10:57:17;;;;;;;1.38;0.60;;;20.00;99.90;;;;;;5080735;28;20185;-89
2022/11/18 10:59:52;;;;;;;1.65;0.80;;;20.00;99.90;;;;;;5052219;28;20247;-87
2022/11/18 11:02:30;;;;;;;2.40;0.60;;;20.00;99.90;;;;;;5051957;28;20232;-88
2022/11/18 11:05:17;;;;;;;2.72;0.70;;;20.00;99.90;;;;;;5046544;28;20221;-87
2022/11/18 11:08:03;;;;;;;1.90;0.77;;;20.00;99.90;;;;;;5034368;28;20217;-90
2022/11/18 11:10:34;;;;;;;1.35;0.57;;;20.00;99.90;;;;;;5047255;28;20283;-91
2022/11/18 11:13:11;;;;;;;5.60;0.90;;;20.00;99.90;;;;;;5068011;28;20224;-88
2022/11/18 11:15:45;;;;;;;1.55;0.60;;;19.90;99.90;;;;;;5061526;28;20196;-89
2022/11/18 11:21:13;;;;;;;2.15;0.70;;;19.80;99.90;;;;;;5035010;28;20268;-88
2022/11/18 11:23:45;;;;;;;3.90;0.90;;;19.80;99.90;;;;;;5042985;28;20193;-89
2022/11/18 11:26:21;;;;;;;1.73;0.68;;;19.80;99.90;;;;;;5051352;28;20275;-87
2022/11/18 11:28:59;;;;;;;2.15;0.80;;;19.80;99.90;;;;;;5042654;28;20220;-84
2022/11/18 11:31:37;;;;;;;2.67;0.90;;;19.80;99.90;;;;;;5050057;28;20192;-83
2022/11/18 11:34:14;;;;;;;1.92;0.70;;;19.80;99.90;;;;;;5047158;28;20303;-85
2022/11/18 11:36:52;;;;;;;3.42;0.80;;;19.80;99.90;;;;;;5049738;28;20200;-86
2022/11/18 11:39:48;;;;;;;2.15;0.60;;;19.80;99.90;;;;;;5051552;28;20250;-87
2022/11/18 11:42:28;;;;;;;2.80;0.70;;;19.80;99.90;;;;;;5050744;28;20196;-87
2022/11/18 11:45:15;;;;;;;1.95;0.57;;;19.80;99.90;;;;;;5053016;28;20283;-87
2022/11/18 11:47:57;;;;;;;4.78;1.00;;;19.80;99.90;;;;;;5050652;28;20199;-87
2022/11/18 11:50:52;;;;;;;3.47;0.95;;;19.80;99.90;;;;;;5036244;28;20184;-85
2022/11/18 11:53:42;;;;;;;1.73;0.60;;;19.80;99.90;;;;;;5033595;28;20278;-85
2022/11/18 11:56:20;;;;;;;3.03;0.88;;;19.80;99.90;;;;;;5048514;28;20221;-86
2022/11/18 11:59:14;;;;;;;2.03;0.77;;;19.80;99.90;;;;;;5047785;28;20213;-86
2022/11/18 12:01:59;;;;;;;4.18;0.75;;;19.70;99.90;;;;;;5045645;28;20200;-84
2022/11/18 12:04:49;;;;;;;1.65;0.50;;;19.70;99.90;;;;;;5046180;28;20733;-85
2022/11/18 12:07:22;;;;;;;3.63;0.90;;;19.70;99.90;;;;;;5045210;28;20298;-85
2022/11/18 12:10:22;;;;;;;2.85;0.80;;;19.60;99.90;;;;;;5055251;28;20222;-88
2022/11/18 12:13:07;;;;;;;4.47;0.90;;;19.60;99.90;;;;;;5043740;28;20205;-87
2022/11/18 12:15:54;;;;;;;1.50;0.50;;;19.50;99.90;;;;;;5070290;28;20220;-87
2022/11/18 12:18:33;;;;;;;4.18;0.70;;;19.50;99.90;;;;;;5051993;28;20579;-86
2022/11/18 12:21:04;;;;;;;4.40;1.00;;;19.50;99.90;;;;;;5049081;28;20217;-87
2022/11/18 12:23:36;;;;;;;3.58;0.93;;;19.50;99.90;;;;;;5039991;28;20726;-88
2022/11/18 12:26:12;;;;;;;4.10;0.93;;;19.40;99.90;;;;;;5051165;28;20272;-88
2022/11/18 12:28:44;;;;;;;3.33;0.88;;;19.30;99.90;;;;;;5050357;28;20277;-88
2022/11/18 12:31:34;;;;;;;2.80;0.90;;;19.30;99.90;;;;;;5046061;28;20200;-87
2022/11/18 12:34:08;;;;;;;2.75;1.00;;;19.30;99.90;;;;;;5048781;28;20202;-86
2022/11/18 12:36:41;;;;;;;2.70;0.80;;;19.40;99.90;;;;;;5047182;28;20582;-87
2022/11/18 12:39:58;;;;;;;2.97;1.00;;;19.30;99.90;;;;;;5051132;28;20188;-88
2022/11/18 12:45:54;;;;;;;4.30;1.23;;;19.30;99.90;;;;;;5067807;28;20646;-88
2022/11/18 12:48:38;;;;;;;2.78;0.80;;;19.30;99.90;;;;;;5067544;28;20208;-89
2022/11/18 12:51:46;;;;;;;3.35;0.88;;;19.20;99.90;;;;;;5057869;28;20194;-86
2022/11/18 12:54:32;;;;;;;1.95;0.77;;;19.20;99.90;;;;;;5064417;28;20628;-85
2022/11/18 12:57:05;;;;;;;2.25;0.80;;;19.20;99.90;;;;;;5065556;28;20232;-86
2022/11/18 12:59:39;;;;;;;3.13;1.10;;;19.30;99.90;;;;;;5073395;28;20202;-86
2022/11/18 13:02:22;;;;;;;2.45;0.88;;;19.30;99.90;;;;;;5071264;28;20602;-86
2022/11/18 13:05:12;;;;;;;3.95;1.20;;;19.30;99.90;;;;;;5071395;28;20676;-87
2022/11/18 13:10:37;;;;;;;2.25;0.98;;;19.20;99.90;;;;;;5069790;28;20315;-86
2022/11/18 13:13:14;;;;;;;3.25;1.13;;;19.10;99.90;;;;;;5081147;28;20274;-86
2022/11/18 13:18:36;;;;;;;3.38;1.00;;;19.00;99.90;;;;;;5089229;28;20683;-86
2022/11/18 13:23:57;;;;;;;3.35;1.20;;;19.00;99.90;;;;;;5074327;28;20207;-87
2022/11/18 13:26:31;;;;;;;3.22;1.10;;;19.00;99.90;;;;;;5070836;28;20200;-85
2022/11/18 13:29:25;;;;;;;2.35;0.85;;;19.00;99.90;;;;;;5072971;28;20212;-87
2022/11/18 13:32:09;;;;;;;1.90;0.77;;;19.00;99.90;;;;;;5073533;28;20192;-87
2022/11/18 13:34:48;;;;;;;2.83;1.00;;;18.90;99.90;;;;;;5073988;28;20195;-86
2022/11/18 13:37:23;;;;;;;2.35;0.90;;;18.90;99.90;;;;;;5070323;28;20199;-86
2022/11/18 13:39:54;;;;;;;2.65;0.80;;;18.90;99.90;;;;;;5066050;28;20199;-87
2022/11/18 13:42:26;;;;;;;4.78;0.70;;;18.90;99.90;;;;;;5053882;28;20229;-86
2022/11/18 13:44:58;;;;;;;2.10;0.95;;;18.90;99.90;;;;;;5053958;28;20857;-87
2022/11/18 13:47:41;;;;;;;2.13;0.90;;;18.90;99.90;;;;;;5063254;28;20215;-85
2022/11/18 13:50:24;;;;;;;3.22;1.10;;;18.90;99.90;;;;;;5073227;28;20717;-86
2022/11/18 13:53:04;;;;;;;2.08;0.90;;;18.80;99.90;;;;;;5073022;28;20188;-85
2022/11/18 13:55:38;;;;;;;3.83;1.00;;;18.80;99.90;;;;;;5064273;28;20199;-85
2022/11/18 13:58:25;;;;;;;4.25;1.05;;;18.80;99.90;;;;;;5063624;28;20192;-87
2022/11/18 14:00:59;;;;;;;2.05;0.80;;;18.80;99.90;;;;;;5061804;28;20196;-86
2022/11/18 14:03:38;;;;;;;3.58;1.08;;;18.80;99.90;;;;;;5061227;28;20220;-86
2022/11/18 14:06:10;;;;;;;1.90;0.90;;;18.70;99.90;;;;;;5059837;28;20199;-86
2022/11/18 14:08:41;;;;;;;3.13;1.00;;;18.70;99.90;;;;;;5072696;28;20654;-86
2022/11/18 14:11:13;;;;;;;1.88;0.80;;;18.60;99.90;;;;;;5068954;28;20298;-86